createdAt,value
2023-04-28T04:04:33.024Z,98347.78
2023-04-28T04:08:45.423Z,98353.00
2023-04-28T04:12:57.060Z,98343.53
2023-04-28T04:17:08.733Z,98337.34
2023-04-28T04:21:20.500Z,98335.44
2023-04-28T04:25:35.008Z,98338.50
2023-04-28T04:29:47.629Z,98341.38
2023-04-28T04:34:00.127Z,98340.41
2023-04-28T04:38:13.069Z,98329.59
2023-04-28T04:42:26.032Z,98315.16
2023-04-28T04:46:52.777Z,98319.84
2023-04-28T04:51:05.910Z,98317.31
2023-04-28T04:55:17.536Z,98315.06
2023-04-28T04:59:29.350Z,98307.91
2023-04-28T05:03:48.985Z,98311.50
2023-04-28T05:08:00.756Z,98311.41
2023-04-28T05:12:12.610Z,98304.09
2023-04-28T05:16:24.263Z,98302.72
2023-04-28T05:20:56.880Z,98306.75
2023-04-28T05:25:09.122Z,98313.44
2023-04-28T05:29:21.861Z,98315.03
2023-04-28T05:33:33.493Z,98312.44
2023-04-28T05:37:45.229Z,98312.94
2023-04-28T05:41:58.589Z,98317.47
2023-04-28T05:46:28.441Z,98320.53
2023-04-28T05:50:42.614Z,98324.72
2023-04-28T05:54:55.750Z,98330.03
2023-04-28T05:59:08.634Z,98328.50
2023-04-28T06:03:21.474Z,98332.28
2023-04-28T06:07:33.434Z,98331.47
2023-04-28T06:11:44.986Z,98330.38
2023-04-28T06:15:56.804Z,98335.84
2023-04-28T06:20:10.611Z,98336.94
2023-04-28T06:24:22.797Z,98336.84
2023-04-28T06:28:37.728Z,98339.22
2023-04-28T06:32:49.344Z,98346.31
2023-04-28T06:37:01.678Z,98344.59
2023-04-28T06:41:13.397Z,98324.22
2023-04-28T06:45:27.389Z,98331.69
2023-04-28T06:49:43.873Z,98336.38
2023-04-28T06:53:55.374Z,98333.66
2023-04-28T06:58:06.963Z,98333.28
2023-04-28T07:02:18.865Z,98339.13
2023-04-28T07:06:31.809Z,98338.38
2023-04-28T07:10:43.370Z,98337.63
2023-04-28T07:14:55.876Z,98343.72
2023-04-28T07:19:07.498Z,98345.75
2023-04-28T07:23:18.995Z,98343.03
2023-04-28T07:27:30.479Z,98351.13
2023-04-28T07:31:42.052Z,98352.56
2023-04-28T07:35:53.760Z,98358.88
2023-04-28T07:40:06.784Z,98352.69
2023-04-28T07:44:18.582Z,98358.41
2023-04-28T07:48:30.380Z,98353.78
2023-04-28T07:52:41.851Z,98351.81
2023-04-28T07:56:53.488Z,98346.84
2023-04-28T08:01:05.197Z,98352.31
2023-04-28T08:05:17.212Z,98350.31
2023-04-28T08:09:28.847Z,98352.75
2023-04-28T08:13:40.411Z,98360.25
2023-04-28T08:17:52.014Z,98360.50
2023-04-28T08:22:07.241Z,98361.53
2023-04-28T08:26:18.823Z,98364.59
2023-04-28T08:30:30.462Z,98367.00
2023-04-28T08:34:42.004Z,98369.44
2023-04-28T08:38:53.626Z,98363.38
2023-04-28T08:43:05.140Z,98366.63
2023-04-28T08:47:18.337Z,98378.94
2023-04-28T08:51:34.775Z,98374.53
2023-04-28T08:55:46.460Z,98376.75
2023-04-28T08:59:58.703Z,98375.69
2023-04-28T09:04:13.995Z,98376.72
2023-04-28T09:08:26.091Z,98380.34
2023-04-28T09:12:40.354Z,98392.09
2023-04-28T09:16:52.311Z,98387.66
2023-04-28T09:21:10.508Z,98393.72
2023-04-28T09:25:23.568Z,98387.03
2023-04-28T09:29:35.371Z,98385.41
2023-04-28T09:34:00.134Z,98390.69
2023-04-28T09:38:12.798Z,98392.50
2023-04-28T09:42:36.489Z,98402.22
2023-04-28T09:46:48.275Z,98400.38
2023-04-28T09:51:07.716Z,98405.03
2023-04-28T09:55:20.412Z,98399.38
2023-04-28T09:59:33.253Z,98400.94
2023-04-28T10:03:46.263Z,98400.47
2023-04-28T10:08:00.156Z,98379.69
2023-04-28T10:12:12.304Z,98376.78
2023-04-28T10:16:24.571Z,98380.72
2023-04-28T10:20:36.893Z,98383.75
2023-04-28T10:25:00.567Z,98390.03
2023-04-28T10:29:12.233Z,98385.97
2023-04-28T10:33:26.240Z,98385.47
2023-04-28T10:38:03.223Z,98388.00
2023-04-28T10:42:51.369Z,98385.03
2023-04-28T10:47:11.903Z,98390.38
2023-04-28T10:51:24.413Z,98392.47
2023-04-28T10:55:41.902Z,98389.28
2023-04-28T11:00:28.869Z,98379.41
2023-04-28T11:05:12.910Z,98374.16
2023-04-28T11:09:31.291Z,98378.81
2023-04-28T11:13:46.736Z,98370.72
2023-04-28T11:18:01.869Z,98375.84
2023-04-28T11:22:22.136Z,98381.28
2023-04-28T11:26:37.743Z,98376.28
2023-04-28T11:30:49.284Z,98370.06
2023-04-28T11:35:01.163Z,98377.16
2023-04-28T11:39:13.432Z,98383.69
2023-04-28T11:43:44.082Z,98388.59
2023-04-28T11:48:00.916Z,98380.91
2023-04-28T11:52:13.623Z,98393.19
2023-04-28T11:56:25.243Z,98379.41
2023-04-28T12:00:36.763Z,98372.50
2023-04-28T12:04:50.574Z,98380.59
2023-04-28T12:09:15.394Z,98377.44
2023-04-28T12:13:27.068Z,98372.69
2023-04-28T12:17:41.371Z,98353.88
2023-04-28T12:22:07.428Z,98362.44
2023-04-28T12:26:25.595Z,98354.19
2023-04-28T12:30:38.950Z,98355.22
2023-04-28T12:34:51.265Z,98349.59
2023-04-28T12:39:02.772Z,98343.63
2023-04-28T12:43:14.960Z,98355.78
2023-04-28T12:47:26.529Z,98348.31
2023-04-28T12:51:39.628Z,98345.28
2023-04-28T12:55:51.273Z,98341.94
2023-04-28T13:00:03.153Z,98346.28
2023-04-28T13:04:14.937Z,98335.53
2023-04-28T13:08:26.816Z,98336.84
2023-04-28T13:12:38.593Z,98333.69
2023-04-28T13:16:52.705Z,98324.44
2023-04-28T13:21:05.840Z,98327.22
2023-04-28T13:25:17.372Z,98323.66
2023-04-28T13:29:29.154Z,98310.91
2023-04-28T13:33:43.700Z,98313.22
2023-04-28T13:38:01.876Z,98307.81
2023-04-28T13:42:13.443Z,98314.47
2023-04-28T13:46:24.970Z,98312.38
2023-04-28T13:50:38.215Z,98320.31
2023-04-28T13:54:51.039Z,98311.50
2023-04-28T13:59:03.048Z,98317.66
2023-04-28T14:03:15.637Z,98311.59
2023-04-28T14:07:28.266Z,98316.59
2023-04-28T14:11:40.386Z,98309.44
2023-04-28T14:15:59.000Z,98321.31
2023-04-28T14:20:11.663Z,98322.63
2023-04-28T14:24:23.489Z,98343.09
2023-04-28T14:28:35.022Z,98345.22
2023-04-28T14:32:46.603Z,98353.81
2023-04-28T14:36:58.213Z,98336.81
2023-04-28T14:41:09.873Z,98338.84
2023-04-28T14:45:21.673Z,98337.97
2023-04-28T14:49:34.085Z,98330.84
2023-04-28T14:53:45.638Z,98316.44
2023-04-28T14:57:57.227Z,98314.09
2023-04-28T15:02:09.640Z,98310.84
2023-04-28T15:06:21.224Z,98310.91
2023-04-28T15:10:38.556Z,98308.94
2023-04-28T15:14:51.145Z,98300.91
2023-04-28T15:19:02.827Z,98289.50
2023-04-28T15:23:14.508Z,98288.47
2023-04-28T15:27:26.047Z,98288.81
2023-04-28T15:31:40.097Z,98287.22
2023-04-28T15:35:51.789Z,98291.91
2023-04-28T15:40:07.962Z,98281.66
2023-04-28T15:44:19.865Z,98287.66
2023-04-28T15:48:31.408Z,98277.53
2023-04-28T15:52:46.929Z,98292.50
2023-04-28T15:56:58.401Z,98277.16
2023-04-28T16:01:10.304Z,98286.28
2023-04-28T16:05:22.082Z,98287.66
2023-04-28T16:09:33.638Z,98282.59
2023-04-28T16:13:45.207Z,98297.44
2023-04-28T16:17:56.836Z,98284.22
2023-04-28T16:22:08.459Z,98289.72
2023-04-28T16:26:19.971Z,98288.94
2023-04-28T16:30:32.895Z,98279.81
2023-04-28T16:34:44.442Z,98262.56
2023-04-28T16:38:55.976Z,98272.22
2023-04-28T16:43:07.465Z,98264.03
2023-04-28T16:47:19.061Z,98273.84
2023-04-28T16:51:32.809Z,98279.47
2023-04-28T16:55:44.385Z,98278.81
2023-04-28T16:59:55.881Z,98272.34
2023-04-28T17:04:07.635Z,98280.75
2023-04-28T17:08:19.341Z,98276.03
2023-04-28T17:12:30.859Z,98280.31
2023-04-28T17:16:43.784Z,98279.97
2023-04-28T17:20:56.944Z,98288.97
2023-04-28T17:25:09.143Z,98279.50
2023-04-28T17:29:21.725Z,98287.06
2023-04-28T17:33:33.296Z,98289.47
2023-04-28T17:37:44.829Z,98290.00
2023-04-28T17:41:57.864Z,98289.50
2023-04-28T17:46:10.137Z,98300.28
2023-04-28T17:50:22.017Z,98303.38
2023-04-28T17:54:33.967Z,98303.06
2023-04-28T17:58:45.548Z,98322.16
2023-04-28T18:02:58.430Z,98316.41
2023-04-28T18:07:10.000Z,98317.41
2023-04-28T18:11:22.120Z,98308.66
2023-04-28T18:15:33.609Z,98319.50
2023-04-28T18:19:45.260Z,98318.22
2023-04-28T18:23:56.772Z,98320.00
2023-04-28T18:28:10.252Z,98333.91
2023-04-28T18:32:22.192Z,98333.63
2023-04-28T18:36:35.830Z,98339.44
2023-04-28T18:40:47.331Z,98347.25
2023-04-28T18:44:58.901Z,98353.44
2023-04-28T18:49:10.638Z,98353.56
2023-04-28T18:53:22.318Z,98356.09
2023-04-28T18:57:33.796Z,98373.22
2023-04-28T19:01:47.687Z,98371.06
2023-04-28T19:05:59.193Z,98370.94
2023-04-28T19:10:11.089Z,98375.41
2023-04-28T19:14:22.630Z,98388.88
2023-04-28T19:18:34.210Z,98387.50
2023-04-28T19:22:46.977Z,98399.44
2023-04-28T19:27:01.188Z,98407.63
2023-04-28T19:31:12.816Z,98405.19
2023-04-28T19:35:24.346Z,98418.19
2023-04-28T19:39:36.295Z,98425.91
2023-04-28T19:43:47.873Z,98419.63
2023-04-28T19:47:59.507Z,98420.28
2023-04-28T19:52:11.684Z,98421.47
2023-04-28T19:56:24.609Z,98427.16
2023-04-28T20:00:36.581Z,98422.50
2023-04-28T20:04:49.087Z,98431.63
2023-04-28T20:09:01.905Z,98435.25
2023-04-28T20:13:15.247Z,98430.41
2023-04-28T20:17:26.822Z,98434.28
2023-04-28T20:21:39.446Z,98433.72
2023-04-28T20:25:50.995Z,98435.38
2023-04-28T20:30:03.268Z,98447.09
2023-04-28T20:34:15.014Z,98440.66
2023-04-28T20:38:27.729Z,98442.84
2023-04-28T20:42:39.224Z,98440.19
2023-04-28T20:46:51.427Z,98437.13
2023-04-28T20:51:03.711Z,98453.03
2023-04-28T20:55:15.670Z,98446.75
2023-04-28T20:59:27.270Z,98440.44
2023-04-28T21:03:38.955Z,98454.97
2023-04-28T21:07:50.772Z,98450.88
2023-04-28T21:12:02.788Z,98453.44
2023-04-28T21:16:17.106Z,98459.88
2023-04-28T21:20:31.083Z,98459.56
2023-04-28T21:24:42.647Z,98469.38
2023-04-28T21:28:54.580Z,98463.09
